createdAt,value
2022-08-16T00:02:17.308Z,3.45
2022-08-16T00:05:21.792Z,3.65
2022-08-16T00:08:30.582Z,3.17
2022-08-16T00:11:41.892Z,2.87
2022-08-16T00:14:44.986Z,3.50
2022-08-16T00:17:57.036Z,3.23
2022-08-16T00:21:00.235Z,3.33
2022-08-16T00:24:05.101Z,3.72
2022-08-16T00:27:14.637Z,3.20
2022-08-16T00:30:28.751Z,3.42
2022-08-16T00:33:32.128Z,3.10
2022-08-16T00:36:37.060Z,3.37
2022-08-16T00:39:57.685Z,3.55
2022-08-16T00:43:01.820Z,3.25
2022-08-16T00:46:34.299Z,3.12
2022-08-16T00:49:39.589Z,3.12
2022-08-16T00:52:51.425Z,3.78
2022-08-16T00:55:56.868Z,3.58
2022-08-16T00:59:00.524Z,3.70
2022-08-16T01:02:30.613Z,4.80
2022-08-16T01:05:30.525Z,3.83
2022-08-16T01:08:37.059Z,3.78
2022-08-16T01:11:54.972Z,3.55
2022-08-16T01:15:00.447Z,3.53
2022-08-16T01:18:04.596Z,3.75
2022-08-16T01:21:34.783Z,4.32
2022-08-16T01:24:52.646Z,4.00
2022-08-16T01:28:01.496Z,4.10
2022-08-16T01:31:08.439Z,3.67
2022-08-16T01:34:24.982Z,3.85
2022-08-16T01:37:35.641Z,4.07
2022-08-16T01:40:40.123Z,3.87
2022-08-16T01:43:45.056Z,4.15
2022-08-16T01:46:57.755Z,3.35
2022-08-16T01:50:41.799Z,3.72
2022-08-16T01:53:26.517Z,3.60
2022-08-16T01:56:34.651Z,3.95
2022-08-16T01:59:39.268Z,3.92
2022-08-16T02:02:44.156Z,3.85
2022-08-16T02:05:55.622Z,3.40
2022-08-16T02:09:00.794Z,3.65
2022-08-16T02:12:50.125Z,3.90
2022-08-16T02:15:38.765Z,4.22
2022-08-16T02:18:48.141Z,3.42
2022-08-16T02:22:09.206Z,3.53
2022-08-16T02:25:16.774Z,4.03
2022-08-16T02:28:23.708Z,3.50
2022-08-16T02:32:04.540Z,4.10
2022-08-16T02:34:50.509Z,4.00
2022-08-16T02:37:56.085Z,3.75
2022-08-16T02:41:01.846Z,3.62
2022-08-16T02:44:06.662Z,3.15
2022-08-16T02:47:12.234Z,3.87
2022-08-16T02:50:53.796Z,3.85
2022-08-16T02:53:54.422Z,4.28
2022-08-16T02:56:59.569Z,3.72
2022-08-16T03:00:34.114Z,4.25
2022-08-16T03:04:40.629Z,4.18
2022-08-16T03:06:57.530Z,4.15
2022-08-16T03:10:04.364Z,4.47
2022-08-16T03:13:12.340Z,4.15
2022-08-16T03:16:37.608Z,3.90
2022-08-16T03:19:47.503Z,3.75
2022-08-16T03:22:56.570Z,4.35
2022-08-16T03:26:00.812Z,4.30
2022-08-16T03:29:04.580Z,4.10
2022-08-16T03:32:07.807Z,4.28
2022-08-16T03:35:10.909Z,4.43
2022-08-16T03:38:32.886Z,4.00
2022-08-16T03:41:50.877Z,3.97
2022-08-16T03:45:03.241Z,4.87
2022-08-16T03:48:08.070Z,5.65
2022-08-16T03:51:12.825Z,5.47
2022-08-16T03:54:20.233Z,5.47
2022-08-16T03:57:31.798Z,5.30
2022-08-16T04:00:59.523Z,5.22
2022-08-16T04:05:46.779Z,5.12
2022-08-16T05:36:16.200Z,5.20
2022-08-16T05:39:33.403Z,5.65
2022-08-16T05:43:11.963Z,5.10
2022-08-16T05:46:30.211Z,5.43
2022-08-16T05:49:40.109Z,5.00
2022-08-16T05:52:44.965Z,4.95
2022-08-16T05:55:48.889Z,5.35
2022-08-16T06:32:08.855Z,5.82
2022-08-16T07:18:07.602Z,5.78
2022-08-16T07:52:20.788Z,5.28
2022-08-16T07:55:24.622Z,5.87
2022-08-16T08:02:47.765Z,5.35
2022-08-16T08:05:55.986Z,5.93
2022-08-16T08:09:23.612Z,5.65
2022-08-16T08:12:32.053Z,5.68
2022-08-16T08:15:39.234Z,5.80
2022-08-16T08:19:07.279Z,5.40
2022-08-16T08:22:28.901Z,5.30
2022-08-16T08:25:54.263Z,5.60
2022-08-16T08:29:00.875Z,4.85
2022-08-16T08:32:57.851Z,5.18
2022-08-16T08:35:29.906Z,5.72
2022-08-16T08:38:46.008Z,5.07
2022-08-16T08:41:51.326Z,4.95
2022-08-16T08:44:55.961Z,5.05
2022-08-16T08:47:58.849Z,5.28
2022-08-16T08:51:09.104Z,5.37
2022-08-16T08:54:20.493Z,4.72
2022-08-16T08:57:26.555Z,4.82
2022-08-16T09:00:31.945Z,5.12
2022-08-16T09:03:54.067Z,5.07
2022-08-16T09:07:01.128Z,4.78
2022-08-16T09:10:20.310Z,4.78
2022-08-16T09:13:32.724Z,4.75
2022-08-16T09:17:02.476Z,4.80
2022-08-16T09:20:08.045Z,4.37
2022-08-16T09:23:11.508Z,4.57
2022-08-16T09:26:45.727Z,4.25
2022-08-16T09:29:45.465Z,4.37
2022-08-16T09:33:10.427Z,4.45
2022-08-16T09:36:32.220Z,4.47
2022-08-16T12:21:59.589Z,3.10
2022-08-16T12:49:42.150Z,2.83
2022-08-16T13:04:20.863Z,3.10
2022-08-16T13:26:57.789Z,2.92
2022-08-16T13:53:43.022Z,2.85
2022-08-16T14:09:16.971Z,2.80
2022-08-16T14:12:46.099Z,2.92
2022-08-16T14:16:23.951Z,2.58
2022-08-16T14:19:59.954Z,3.03
2022-08-16T14:23:14.713Z,2.60
2022-08-16T14:26:57.573Z,2.85
2022-08-16T14:30:01.391Z,3.00
2022-08-16T14:33:14.554Z,2.95
2022-08-16T14:36:31.346Z,3.20
2022-08-16T14:39:39.411Z,3.00
2022-08-16T14:51:10.705Z,3.37
2022-08-16T14:54:36.533Z,2.55
2022-08-16T14:58:06.999Z,3.05
2022-08-16T15:04:58.823Z,2.95
2022-08-16T15:08:02.364Z,2.65
2022-08-16T15:12:26.276Z,3.00
2022-08-16T15:19:31.270Z,2.87
2022-08-16T15:26:45.242Z,2.72
2022-08-16T15:29:53.867Z,2.80
2022-08-16T15:36:57.065Z,2.90
2022-08-16T15:40:01.405Z,2.78
2022-08-16T15:47:26.472Z,2.65
2022-08-16T15:58:58.978Z,2.80
2022-08-16T16:02:33.585Z,2.60
2022-08-16T16:13:42.914Z,2.47
2022-08-16T16:45:25.858Z,2.70
2022-08-16T16:52:58.068Z,2.85
2022-08-16T16:56:20.380Z,2.90
2022-08-16T16:59:50.050Z,2.60
2022-08-16T17:15:52.225Z,3.03
2022-08-16T17:29:51.439Z,2.72
2022-08-16T20:34:44.752Z,3.20
2022-08-16T20:37:48.685Z,3.30
2022-08-16T20:40:51.572Z,3.30
2022-08-16T20:43:55.277Z,3.10
2022-08-16T20:46:58.047Z,3.00
2022-08-16T20:50:03.780Z,2.80
2022-08-16T20:53:06.964Z,3.10
2022-08-16T20:56:11.212Z,3.70
2022-08-16T20:59:14.120Z,3.40
2022-08-16T21:02:24.643Z,3.30
2022-08-16T21:05:31.310Z,2.83
2022-08-16T21:08:53.245Z,3.08
2022-08-16T21:11:58.976Z,3.17
2022-08-16T21:15:08.769Z,3.12
2022-08-16T21:18:11.625Z,3.45
2022-08-16T21:21:14.703Z,3.10
2022-08-16T21:24:17.491Z,3.42
2022-08-16T21:27:20.722Z,3.55
2022-08-16T21:30:32.165Z,3.30
2022-08-16T21:33:35.567Z,3.37
2022-08-16T21:36:39.475Z,3.08
2022-08-16T21:39:42.675Z,3.33
2022-08-16T21:42:47.107Z,3.35
2022-08-16T21:45:54.109Z,3.58
2022-08-16T21:48:58.405Z,3.05
2022-08-16T21:52:05.040Z,3.20
2022-08-16T21:55:10.200Z,3.30
2022-08-16T21:58:16.905Z,3.40
2022-08-16T22:01:23.228Z,3.50
2022-08-16T22:04:36.729Z,3.00
2022-08-16T22:07:43.190Z,3.58
2022-08-16T22:11:04.165Z,3.67
2022-08-16T22:14:09.824Z,3.33
2022-08-16T22:17:12.937Z,3.67
2022-08-16T22:20:16.425Z,3.35
2022-08-16T22:23:22.327Z,3.70
2022-08-16T22:26:39.611Z,3.25
2022-08-16T22:29:46.958Z,3.55
2022-08-16T22:35:53.317Z,3.62
2022-08-16T22:38:58.802Z,3.87
2022-08-16T22:42:08.643Z,3.50
2022-08-16T22:45:12.268Z,3.92
2022-08-16T22:51:19.812Z,3.50
2022-08-16T22:54:44.160Z,3.60
2022-08-16T22:57:46.304Z,3.25
2022-08-16T23:00:50.329Z,3.92
2022-08-16T23:03:55.766Z,4.20
2022-08-16T23:06:58.931Z,3.75
2022-08-16T23:10:01.946Z,3.85
2022-08-16T23:13:06.699Z,3.90
2022-08-16T23:19:16.964Z,3.28
2022-08-16T23:22:19.710Z,3.87
2022-08-16T23:25:31.256Z,3.72
2022-08-16T23:28:34.378Z,3.87
2022-08-16T23:31:38.871Z,3.85
2022-08-16T23:34:41.781Z,3.80
2022-08-16T23:37:46.265Z,3.90
2022-08-16T23:40:50.239Z,4.00
2022-08-16T23:43:53.661Z,3.78
2022-08-16T23:46:56.945Z,4.10
2022-08-16T23:50:03.531Z,3.70
2022-08-16T23:53:13.450Z,3.58
2022-08-16T23:56:19.861Z,3.95
2022-08-16T23:59:22.675Z,3.55
